Time;durP1;ratioP1;P1;durP2;ratioP2;P2;SDS_P1;SDS_P2;PMS_P1;PMS_P2;Temp;Humidity;BMP_temperature;BMP_pressure;BME280_temperature;BME280_humidity;BME280_pressure;Samples;Min_cycle;Max_cycle;Signal;HPM_P1;HPM_P2
2022/12/24 00:01:27;;;;;;;38.55;8.73;;;11.10;90.50;;;;;;5004158;28;20042;-76
2022/12/24 00:03:53;;;;;;;29.90;6.32;;;11.10;90.50;;;;;;5004175;28;20061;-76
2022/12/24 00:06:21;;;;;;;31.38;6.63;;;11.10;90.70;;;;;;5005650;28;20558;-76
2022/12/24 00:08:47;;;;;;;34.45;7.05;;;11.10;90.80;;;;;;5006890;28;20042;-76
2022/12/24 00:11:13;;;;;;;35.75;7.45;;;11.10;90.90;;;;;;5003534;28;20122;-76
2022/12/24 00:13:39;;;;;;;40.65;7.70;;;11.10;91.00;;;;;;4998712;28;20086;-75
2022/12/24 00:16:05;;;;;;;35.15;7.40;;;11.10;91.20;;;;;;4996797;28;20510;-77
2022/12/24 00:18:31;;;;;;;34.88;8.82;;;11.10;91.30;;;;;;4997950;28;20545;-77
2022/12/24 00:20:57;;;;;;;34.67;7.95;;;11.10;91.30;;;;;;5007751;28;20041;-77
2022/12/24 00:23:22;;;;;;;42.15;8.63;;;11.10;91.40;;;;;;4997760;28;20046;-77
2022/12/24 00:25:48;;;;;;;33.15;7.03;;;11.10;91.60;;;;;;4994094;28;20030;-77
2022/12/24 00:28:15;;;;;;;43.95;8.38;;;11.10;91.60;;;;;;5001785;28;20037;-77
2022/12/24 00:30:42;;;;;;;34.88;8.02;;;11.10;91.80;;;;;;5007917;28;20037;-76
2022/12/24 00:33:08;;;;;;;35.45;8.45;;;11.10;92.10;;;;;;5011715;28;20062;-77
2022/12/24 00:35:35;;;;;;;40.28;8.73;;;11.10;92.30;;;;;;5012058;28;20424;-76
2022/12/24 00:38:02;;;;;;;38.20;7.63;;;11.10;92.60;;;;;;5005463;28;20061;-74
2022/12/24 00:40:29;;;;;;;30.73;6.68;;;11.00;92.70;;;;;;5014244;28;20037;-78
2022/12/24 00:42:55;;;;;;;35.13;7.32;;;11.10;92.90;;;;;;5013508;28;20042;-75
2022/12/24 00:45:22;;;;;;;39.33;7.40;;;11.00;92.90;;;;;;5012088;28;20045;-74
2022/12/24 00:47:48;;;;;;;31.42;6.57;;;11.00;93.00;;;;;;5007353;28;20129;-75
2022/12/24 00:50:15;;;;;;;34.53;7.07;;;11.00;93.10;;;;;;5007725;28;20052;-76
2022/12/24 00:52:41;;;;;;;32.88;7.03;;;11.00;93.20;;;;;;5006717;28;20041;-75
2022/12/24 00:55:07;;;;;;;39.88;8.57;;;10.90;93.30;;;;;;5006825;28;20053;-76
2022/12/24 00:57:33;;;;;;;42.65;8.00;;;11.00;93.40;;;;;;5005566;28;20030;-76
2022/12/24 00:59:59;;;;;;;34.85;7.97;;;10.90;93.40;;;;;;5026186;28;20065;-77
2022/12/24 01:02:25;;;;;;;46.78;9.15;;;10.90;93.50;;;;;;5005235;28;20051;-76
2022/12/24 01:05:09;;;;;;;39.38;7.35;;;11.00;93.50;;;;;;5000815;28;20045;-76
2022/12/24 01:07:45;;;;;;;41.63;8.40;;;10.90;93.50;;;;;;5002546;28;20098;-76
2022/12/24 01:10:14;;;;;;;40.15;9.60;;;10.90;93.50;;;;;;5007387;28;20037;-75
2022/12/24 01:12:41;;;;;;;42.78;7.75;;;10.90;93.40;;;;;;5004691;28;20054;-77
2022/12/24 01:15:08;;;;;;;39.80;8.27;;;10.90;93.40;;;;;;5004424;28;20045;-76
2022/12/24 01:17:35;;;;;;;35.80;7.65;;;10.90;93.30;;;;;;5002197;28;20065;-76
2022/12/24 01:20:01;;;;;;;35.80;7.80;;;10.90;93.30;;;;;;5004533;28;20125;-75
2022/12/24 01:22:27;;;;;;;36.80;7.15;;;10.90;93.30;;;;;;5004547;28;20034;-75
2022/12/24 01:24:54;;;;;;;37.83;7.70;;;10.90;93.10;;;;;;5009361;28;20049;-77
2022/12/24 01:27:19;;;;;;;42.03;8.32;;;10.90;93.10;;;;;;5002928;28;20038;-77
2022/12/24 01:29:45;;;;;;;37.60;7.40;;;11.00;93.00;;;;;;5006406;28;20038;-76
2022/12/24 01:32:11;;;;;;;43.33;8.10;;;11.00;93.00;;;;;;5003644;28;20565;-76
2022/12/24 01:34:37;;;;;;;38.03;7.60;;;11.00;92.90;;;;;;5004407;28;20357;-75
2022/12/24 01:37:02;;;;;;;46.05;8.95;;;11.00;92.90;;;;;;5000451;28;20089;-75
2022/12/24 01:39:28;;;;;;;38.17;8.25;;;11.00;92.90;;;;;;5002255;28;20042;-76
2022/12/24 01:44:41;;;;;;;37.42;6.72;;;11.00;92.70;;;;;;5000814;28;20041;-76
2022/12/24 01:47:13;;;;;;;40.83;6.22;;;11.00;92.50;;;;;;5000247;28;20030;-75
2022/12/24 01:49:49;;;;;;;33.53;7.53;;;11.00;92.40;;;;;;5000632;28;20117;-76
2022/12/24 01:52:19;;;;;;;30.50;6.22;;;11.00;92.20;;;;;;5001654;28;20038;-76
2022/12/24 01:54:51;;;;;;;35.30;7.07;;;11.00;92.10;;;;;;5000910;28;20057;-76
2022/12/24 01:57:37;;;;;;;34.15;7.05;;;11.00;91.90;;;;;;5001578;28;20042;-77
2022/12/24 02:00:09;;;;;;;28.27;6.07;;;11.00;91.90;;;;;;5004195;28;20524;-75
2022/12/24 02:02:38;;;;;;;26.70;6.05;;;11.00;91.70;;;;;;5002742;28;20481;-76
2022/12/24 02:05:11;;;;;;;29.13;5.90;;;11.10;91.70;;;;;;5002587;28;20061;-76
2022/12/24 02:07:37;;;;;;;32.75;6.30;;;11.00;91.70;;;;;;5004499;28;20084;-75
2022/12/24 02:10:07;;;;;;;33.90;6.07;;;11.00;91.60;;;;;;4994627;28;20166;-76
2022/12/24 02:12:34;;;;;;;25.15;5.20;;;11.10;91.70;;;;;;5001744;28;20508;-75
2022/12/24 02:15:01;;;;;;;29.92;5.05;;;11.00;91.80;;;;;;5001058;28;20037;-74
2022/12/24 02:17:56;;;;;;;33.78;6.63;;;11.00;91.80;;;;;;4999569;28;20054;-74
2022/12/24 02:20:48;;;;;;;29.15;5.80;;;10.90;91.80;;;;;;5001885;28;20049;-74
2022/12/24 02:23:47;;;;;;;29.45;5.60;;;10.90;91.80;;;;;;4999826;28;20037;-74
2022/12/24 02:26:43;;;;;;;26.17;5.50;;;10.80;91.80;;;;;;5000022;28;20040;-74
2022/12/24 02:29:25;;;;;;;28.05;6.53;;;10.80;92.00;;;;;;5001320;28;20172;-73
2022/12/24 02:31:56;;;;;;;28.65;5.20;;;10.70;92.20;;;;;;5002530;28;20057;-76
2022/12/24 02:34:34;;;;;;;29.05;6.25;;;10.70;92.30;;;;;;5000408;28;20117;-75
2022/12/24 02:37:16;;;;;;;33.22;6.18;;;10.70;92.40;;;;;;4994463;28;20038;-76
2022/12/24 02:39:46;;;;;;;32.20;6.82;;;10.70;92.50;;;;;;4999595;28;20042;-76
2022/12/24 02:42:16;;;;;;;29.38;5.82;;;10.60;92.50;;;;;;5000675;28;20033;-76
2022/12/24 02:44:48;;;;;;;32.85;6.82;;;10.60;92.70;;;;;;5000084;28;20026;-76
2022/12/24 02:47:16;;;;;;;31.38;7.65;;;10.60;92.70;;;;;;4992163;28;20074;-76
2022/12/24 02:49:47;;;;;;;30.48;6.43;;;10.60;92.70;;;;;;5004260;28;20038;-76
2022/12/24 02:52:36;;;;;;;37.13;6.75;;;10.60;92.70;;;;;;5003253;28;20501;-73
2022/12/24 02:55:16;;;;;;;34.08;7.57;;;10.60;92.80;;;;;;4994505;28;20030;-76
2022/12/24 02:58:19;;;;;;;32.50;6.82;;;10.60;92.70;;;;;;4997650;28;20709;-76
2022/12/24 03:01:19;;;;;;;40.55;7.55;;;10.50;92.70;;;;;;5003569;28;20048;-75
2022/12/24 03:03:58;;;;;;;36.40;8.82;;;10.50;92.80;;;;;;5000996;28;20045;-76
2022/12/24 03:06:44;;;;;;;39.08;7.95;;;10.50;92.90;;;;;;4998632;28;20030;-76
2022/12/24 03:09:24;;;;;;;44.72;7.93;;;10.40;92.90;;;;;;4999572;28;20038;-75
2022/12/24 03:11:57;;;;;;;31.77;7.28;;;10.40;93.00;;;;;;5004604;28;20038;-75
2022/12/24 03:14:25;;;;;;;31.25;6.85;;;10.50;93.00;;;;;;5004710;28;20062;-75
2022/12/24 03:16:55;;;;;;;30.67;6.75;;;10.40;92.90;;;;;;4999791;28;20037;-76
2022/12/24 03:19:23;;;;;;;34.30;7.28;;;10.30;93.10;;;;;;5001626;28;20103;-76
2022/12/24 03:21:49;;;;;;;43.20;7.50;;;10.30;93.20;;;;;;5007617;28;20069;-75
2022/12/24 03:24:15;;;;;;;38.92;7.53;;;10.30;93.10;;;;;;5007941;28;20605;-75
2022/12/24 03:26:43;;;;;;;38.35;7.30;;;10.20;93.20;;;;;;5004057;28;20123;-75
2022/12/24 03:29:09;;;;;;;37.33;7.72;;;10.20;93.30;;;;;;4999840;28;20556;-75
2022/12/24 03:31:40;;;;;;;39.13;7.25;;;10.20;93.20;;;;;;5002499;28;20522;-76
2022/12/24 03:34:06;;;;;;;37.40;7.93;;;10.10;93.20;;;;;;5008335;28;20417;-75
2022/12/24 03:36:32;;;;;;;35.58;6.78;;;10.20;93.20;;;;;;5005534;28;20033;-76
2022/12/24 03:38:57;;;;;;;42.58;8.05;;;10.10;93.30;;;;;;5012377;28;20060;-75
2022/12/24 03:41:23;;;;;;;32.35;6.60;;;10.10;93.40;;;;;;5013216;28;20124;-76
2022/12/24 03:43:48;;;;;;;34.47;6.75;;;10.10;93.30;;;;;;5006775;28;20359;-75
2022/12/24 03:46:14;;;;;;;36.03;7.97;;;10.10;93.30;;;;;;5006417;28;20091;-75
2022/12/24 03:48:40;;;;;;;43.88;7.85;;;10.10;93.30;;;;;;5008592;28;20132;-75
2022/12/24 03:51:19;;;;;;;40.92;7.20;;;10.10;93.30;;;;;;5005082;28;20401;-76
2022/12/24 03:53:45;;;;;;;41.55;7.75;;;10.10;93.30;;;;;;4999840;28;20034;-75
2022/12/24 03:56:11;;;;;;;38.53;8.00;;;10.10;93.20;;;;;;5003951;28;20038;-76
2022/12/24 03:58:36;;;;;;;35.20;7.05;;;10.00;93.20;;;;;;5006447;28;20084;-75
2022/12/24 04:01:02;;;;;;;45.33;8.52;;;10.10;93.30;;;;;;5002497;28;20060;-75
2022/12/24 04:03:28;;;;;;;40.97;7.47;;;10.10;93.20;;;;;;4999315;28;20069;-75
2022/12/24 04:06:13;;;;;;;40.05;7.45;;;10.00;93.10;;;;;;5000958;28;20414;-75
2022/12/24 04:08:40;;;;;;;40.28;8.82;;;10.00;93.10;;;;;;5007930;28;20034;-76
2022/12/24 04:11:09;;;;;;;42.05;8.10;;;10.10;93.10;;;;;;5003884;28;20061;-75
2022/12/24 04:13:35;;;;;;;31.77;6.47;;;10.10;93.10;;;;;;5008184;28;20076;-75
2022/12/24 04:16:12;;;;;;;38.75;7.13;;;10.10;93.00;;;;;;5006672;28;20069;-76
2022/12/24 04:18:39;;;;;;;41.65;8.95;;;10.10;93.00;;;;;;5017595;28;20526;-76
2022/12/24 04:21:06;;;;;;;38.47;7.78;;;10.10;92.90;;;;;;5007865;28;20042;-75
2022/12/24 04:23:33;;;;;;;49.90;8.23;;;10.10;92.90;;;;;;5008295;28;20064;-76
2022/12/24 04:26:00;;;;;;;44.22;7.45;;;10.00;92.90;;;;;;5008715;28;20105;-75
2022/12/24 04:28:25;;;;;;;43.05;7.55;;;10.10;92.90;;;;;;5006817;28;20042;-75
2022/12/24 04:30:56;;;;;;;41.65;8.15;;;10.10;92.90;;;;;;5004060;28;20092;-76
2022/12/24 04:33:21;;;;;;;36.53;7.75;;;10.10;92.80;;;;;;5001870;28;20052;-75
2022/12/24 04:35:47;;;;;;;37.22;7.47;;;10.10;92.70;;;;;;5001786;28;20022;-76
2022/12/24 04:38:13;;;;;;;34.83;7.05;;;10.10;92.70;;;;;;5004706;28;20137;-75
2022/12/24 04:40:38;;;;;;;38.83;7.75;;;10.10;92.70;;;;;;5003195;28;20045;-76
2022/12/24 04:43:04;;;;;;;35.38;7.10;;;10.10;92.70;;;;;;5003719;28;20034;-76
2022/12/24 04:45:30;;;;;;;40.55;7.85;;;10.20;92.80;;;;;;5001109;28;20033;-76
2022/12/24 04:47:56;;;;;;;47.53;7.75;;;10.10;92.80;;;;;;4986815;28;20046;-75
2022/12/24 04:50:21;;;;;;;34.65;6.90;;;10.20;92.80;;;;;;5001449;28;20500;-75
2022/12/24 04:52:47;;;;;;;39.95;8.75;;;10.20;92.80;;;;;;5002538;28;20030;-76
2022/12/24 04:55:13;;;;;;;46.85;7.60;;;10.20;92.70;;;;;;5002590;28;20037;-75
2022/12/24 04:57:39;;;;;;;31.13;6.32;;;10.20;92.70;;;;;;5004228;28;20034;-75
2022/12/24 05:00:06;;;;;;;38.05;8.05;;;10.30;92.60;;;;;;4995687;28;20061;-75
2022/12/24 05:02:32;;;;;;;30.85;6.03;;;10.30;92.60;;;;;;5002418;28;20421;-76
2022/12/24 05:04:57;;;;;;;38.90;7.82;;;10.30;92.50;;;;;;5001058;28;20033;-75
2022/12/24 05:07:23;;;;;;;33.42;7.22;;;10.40;92.60;;;;;;4999054;28;20085;-75
2022/12/24 05:09:48;;;;;;;42.22;7.93;;;10.40;92.70;;;;;;4995078;28;20030;-75
2022/12/24 05:12:14;;;;;;;42.15;7.05;;;10.40;92.70;;;;;;5001282;28;20117;-75
2022/12/24 05:14:40;;;;;;;40.78;8.05;;;10.40;92.70;;;;;;4998682;28;20112;-75
2022/12/24 05:17:06;;;;;;;43.85;8.32;;;10.40;92.70;;;;;;5003428;28;20466;-75
2022/12/24 05:19:31;;;;;;;39.30;7.93;;;10.40;92.80;;;;;;4999739;28;20425;-75
2022/12/24 05:27:26;;;;;;;39.55;8.40;;;10.40;93.00;;;;;;5001303;28;20091;-75
2022/12/24 05:29:51;;;;;;;37.78;6.97;;;10.40;93.10;;;;;;4999439;28;20045;-76
2022/12/24 05:32:17;;;;;;;36.45;6.95;;;10.40;93.20;;;;;;4998971;28;20155;-76
2022/12/24 05:34:43;;;;;;;36.30;9.10;;;10.40;93.30;;;;;;5000310;28;20371;-75
2022/12/24 05:37:08;;;;;;;40.13;8.13;;;10.40;93.30;;;;;;5002829;28;20030;-76
2022/12/24 05:39:34;;;;;;;39.67;7.40;;;10.40;93.30;;;;;;5001446;28;20057;-75
2022/12/24 05:41:59;;;;;;;41.60;7.93;;;10.30;93.30;;;;;;5000450;28;20494;-76
2022/12/24 05:44:25;;;;;;;45.00;7.60;;;10.30;93.30;;;;;;4998990;28;20540;-75
2022/12/24 05:46:51;;;;;;;31.20;6.68;;;10.30;93.50;;;;;;4999354;28;20042;-75
2022/12/24 05:49:16;;;;;;;41.50;7.97;;;10.30;93.40;;;;;;4994361;28;20092;-75
2022/12/24 05:51:42;;;;;;;38.42;7.43;;;10.30;93.40;;;;;;4998742;28;20096;-76
2022/12/24 05:54:08;;;;;;;36.72;6.55;;;10.30;93.30;;;;;;4998951;28;20125;-76
2022/12/24 05:56:33;;;;;;;39.33;6.55;;;10.30;93.40;;;;;;4996126;28;20022;-75
2022/12/24 05:58:59;;;;;;;44.53;7.95;;;10.30;93.40;;;;;;5000012;28;20060;-76
2022/12/24 06:01:25;;;;;;;40.80;8.23;;;10.30;93.40;;;;;;4991881;28;21606;-75
2022/12/24 06:03:52;;;;;;;42.33;7.75;;;10.30;93.30;;;;;;4997527;28;20095;-75
2022/12/24 06:06:20;;;;;;;40.35;6.40;;;10.30;93.30;;;;;;4999798;28;20539;-75
2022/12/24 06:08:47;;;;;;;38.30;7.22;;;10.30;93.20;;;;;;4995330;28;20068;-76
2022/12/24 06:11:15;;;;;;;48.33;8.18;;;10.20;93.20;;;;;;4999896;28;20118;-76
2022/12/24 06:13:41;;;;;;;35.95;6.53;;;10.20;93.20;;;;;;5001539;28;20034;-75
2022/12/24 06:16:10;;;;;;;40.75;8.75;;;10.20;93.20;;;;;;5002383;28;20493;-75
2022/12/24 06:18:36;;;;;;;37.47;7.63;;;10.20;93.20;;;;;;5002904;28;20050;-76
2022/12/24 06:21:03;;;;;;;42.85;7.82;;;10.20;93.20;;;;;;5002245;28;20129;-75
2022/12/24 06:23:32;;;;;;;39.58;8.32;;;10.20;93.20;;;;;;5001036;28;20034;-75
2022/12/24 06:26:02;;;;;;;33.83;6.72;;;10.20;93.30;;;;;;5002342;28;20069;-75
2022/12/24 06:28:34;;;;;;;41.50;7.55;;;10.20;93.30;;;;;;4992276;28;20048;-75
2022/12/24 06:31:00;;;;;;;42.22;8.00;;;10.30;93.30;;;;;;5001363;28;20087;-75
2022/12/24 06:33:26;;;;;;;48.13;7.82;;;10.40;93.40;;;;;;5001924;28;20084;-75
2022/12/24 06:35:52;;;;;;;39.00;7.18;;;10.40;93.40;;;;;;4994832;28;20069;-75
2022/12/24 06:38:17;;;;;;;39.72;6.88;;;10.40;93.30;;;;;;5001185;28;20057;-75
2022/12/24 06:40:45;;;;;;;38.67;7.80;;;10.40;93.20;;;;;;5002192;28;20074;-76
2022/12/24 06:43:12;;;;;;;42.78;6.95;;;10.40;93.20;;;;;;4999563;28;20041;-75
2022/12/24 06:45:38;;;;;;;45.92;7.65;;;10.50;93.20;;;;;;5001166;28;20037;-75
2022/12/24 06:48:05;;;;;;;49.05;7.55;;;10.50;93.10;;;;;;5000290;28;20041;-75
2022/12/24 06:50:32;;;;;;;38.35;7.90;;;10.50;93.00;;;;;;4988104;28;20026;-75
2022/12/24 06:52:58;;;;;;;38.30;8.07;;;10.50;93.00;;;;;;4988452;28;20034;-75
2022/12/24 06:55:24;;;;;;;37.22;7.18;;;10.50;92.90;;;;;;4994548;28;20052;-75
2022/12/24 06:57:49;;;;;;;30.33;7.78;;;10.60;92.80;;;;;;4999603;28;20083;-75
2022/12/24 07:00:15;;;;;;;35.65;7.82;;;10.60;92.60;;;;;;4995016;28;20073;-75
2022/12/24 07:02:42;;;;;;;42.00;8.23;;;10.50;92.70;;;;;;5008013;28;20045;-75
2022/12/24 07:05:10;;;;;;;36.75;6.82;;;10.60;92.50;;;;;;5002598;28;20034;-75
2022/12/24 07:07:41;;;;;;;38.25;7.75;;;10.60;92.50;;;;;;5000333;28;20151;-75
2022/12/24 07:10:09;;;;;;;36.53;7.80;;;10.60;92.40;;;;;;5000470;28;20113;-75
2022/12/24 07:12:35;;;;;;;38.75;7.55;;;10.60;92.40;;;;;;4995490;28;20108;-75
2022/12/24 07:15:00;;;;;;;39.72;8.20;;;10.60;92.30;;;;;;5001953;28;20034;-75
2022/12/24 07:17:26;;;;;;;49.28;8.88;;;10.60;92.20;;;;;;5000115;28;20378;-76
2022/12/24 07:19:52;;;;;;;39.15;7.65;;;10.40;92.10;;;;;;4998645;28;20061;-75
2022/12/24 07:22:18;;;;;;;37.35;7.70;;;10.40;92.20;;;;;;4986717;28;20572;-76
2022/12/24 07:24:44;;;;;;;31.88;8.43;;;10.30;92.20;;;;;;4981831;28;20034;-76
2022/12/24 07:27:09;;;;;;;35.63;7.47;;;10.20;92.40;;;;;;4980576;28;20069;-75
2022/12/24 07:29:35;;;;;;;30.33;8.95;;;10.20;92.50;;;;;;4974545;28;20105;-75
2022/12/24 07:32:00;;;;;;;47.60;9.35;;;10.10;92.60;;;;;;4979132;28;20139;-75
2022/12/24 07:34:26;;;;;;;40.75;7.93;;;10.10;92.70;;;;;;4971527;28;20472;-75
2022/12/24 07:36:52;;;;;;;32.00;8.13;;;10.10;92.80;;;;;;4980242;28;20487;-75
2022/12/24 07:39:18;;;;;;;37.50;8.30;;;10.10;92.80;;;;;;4981824;28;20057;-75
2022/12/24 07:41:43;;;;;;;40.38;7.72;;;10.10;92.70;;;;;;4977374;28;20030;-75
2022/12/24 07:44:13;;;;;;;36.15;8.57;;;10.10;92.70;;;;;;4978892;28;20041;-75
2022/12/24 07:46:39;;;;;;;41.00;9.10;;;10.10;92.80;;;;;;4980239;28;20046;-75
2022/12/24 07:49:04;;;;;;;38.28;8.68;;;10.10;92.80;;;;;;4980069;28;20513;-74
2022/12/24 07:51:30;;;;;;;38.60;8.90;;;10.10;92.80;;;;;;4979776;28;20114;-74
2022/12/24 07:53:56;;;;;;;45.60;9.13;;;10.00;92.80;;;;;;4977744;28;20051;-75
2022/12/24 07:56:21;;;;;;;37.83;8.85;;;10.00;92.90;;;;;;4982642;28;20053;-76
2022/12/24 07:58:49;;;;;;;39.40;9.07;;;10.00;93.10;;;;;;4981397;28;20058;-74
2022/12/24 08:01:15;;;;;;;36.58;8.50;;;10.00;93.20;;;;;;4980712;28;20038;-73
2022/12/24 08:03:56;;;;;;;40.58;9.63;;;10.00;93.30;;;;;;4979875;28;20092;-75
2022/12/24 08:06:22;;;;;;;39.63;9.18;;;10.00;93.20;;;;;;4967131;28;20035;-75
2022/12/24 08:08:51;;;;;;;37.72;9.65;;;10.00;93.20;;;;;;4986572;28;20093;-74
2022/12/24 08:11:16;;;;;;;30.17;7.20;;;10.10;93.20;;;;;;4980977;28;20034;-75
2022/12/24 08:13:42;;;;;;;36.47;9.00;;;10.00;93.10;;;;;;4982850;28;20100;-75
2022/12/24 08:16:07;;;;;;;44.70;10.05;;;10.00;93.10;;;;;;4980843;28;20769;-75
2022/12/24 08:18:33;;;;;;;36.15;9.50;;;10.00;93.20;;;;;;4982968;28;20486;-76
2022/12/24 08:20:59;;;;;;;34.88;9.35;;;10.00;93.20;;;;;;4982504;28;20049;-74
2022/12/24 08:23:25;;;;;;;34.90;8.27;;;10.10;93.10;;;;;;4984455;28;20039;-75
2022/12/24 08:25:50;;;;;;;42.15;9.60;;;10.10;93.20;;;;;;4978208;28;20041;-74
2022/12/24 08:28:18;;;;;;;36.30;8.55;;;10.10;93.20;;;;;;4982521;28;20491;-75
2022/12/24 08:30:44;;;;;;;38.17;8.57;;;10.10;93.20;;;;;;4983033;28;20084;-74
2022/12/24 08:33:11;;;;;;;38.53;9.00;;;10.10;93.20;;;;;;4981377;28;20097;-75
2022/12/24 08:35:36;;;;;;;36.20;8.55;;;10.10;93.10;;;;;;4977994;28;20039;-75
2022/12/24 08:38:02;;;;;;;30.83;8.88;;;10.10;93.10;;;;;;4980108;28;20045;-75
2022/12/24 08:40:28;;;;;;;33.80;8.25;;;10.10;93.20;;;;;;4978851;28;20042;-74
2022/12/24 08:42:54;;;;;;;34.55;9.13;;;10.10;93.20;;;;;;4982592;28;20426;-75
2022/12/24 08:45:19;;;;;;;38.35;8.75;;;10.10;93.20;;;;;;4974231;28;20062;-75
2022/12/24 08:47:45;;;;;;;36.13;7.60;;;10.10;93.10;;;;;;4976426;28;20460;-75
2022/12/24 08:50:11;;;;;;;32.55;8.75;;;10.20;93.10;;;;;;4979454;28;20483;-74
2022/12/24 08:52:37;;;;;;;36.72;8.63;;;10.20;93.00;;;;;;4983381;28;20034;-74
2022/12/24 08:55:04;;;;;;;36.42;7.97;;;10.20;93.00;;;;;;4986237;28;20042;-74
2022/12/24 08:57:29;;;;;;;39.65;8.50;;;10.30;92.80;;;;;;5002702;28;20038;-75
2022/12/24 08:59:55;;;;;;;33.58;7.63;;;10.30;92.80;;;;;;5000841;28;20054;-74
2022/12/24 09:02:21;;;;;;;34.53;8.35;;;10.30;92.70;;;;;;5001688;28;20132;-75
2022/12/24 09:04:47;;;;;;;36.83;8.30;;;10.40;92.50;;;;;;4999308;28;20037;-74
2022/12/24 09:07:13;;;;;;;32.65;8.05;;;10.40;92.40;;;;;;5002599;28;20030;-75
2022/12/24 09:09:38;;;;;;;38.08;8.20;;;10.40;92.40;;;;;;4998972;28;20084;-74
2022/12/24 09:12:06;;;;;;;32.40;7.65;;;10.40;92.30;;;;;;5002859;28;20040;-74
2022/12/24 09:14:31;;;;;;;34.03;8.45;;;10.50;92.10;;;;;;5002659;28;20122;-74
2022/12/24 09:16:58;;;;;;;33.80;7.82;;;10.50;92.00;;;;;;5000053;28;20222;-74
2022/12/24 09:19:24;;;;;;;38.50;9.35;;;10.50;91.90;;;;;;4997192;28;20046;-75
2022/12/24 09:21:49;;;;;;;31.30;7.70;;;10.60;91.80;;;;;;5000202;28;20096;-74
2022/12/24 09:24:15;;;;;;;37.00;8.75;;;10.60;91.70;;;;;;5002050;28;20135;-76
2022/12/24 09:26:41;;;;;;;35.67;8.90;;;10.60;91.60;;;;;;5000376;28;20041;-74
2022/12/24 09:29:08;;;;;;;30.90;7.38;;;10.60;91.50;;;;;;5000157;28;20275;-74
2022/12/24 09:31:34;;;;;;;29.50;7.32;;;10.70;91.40;;;;;;4997408;28;20040;-74
2022/12/24 09:34:00;;;;;;;29.42;7.10;;;10.70;91.40;;;;;;4998470;28;20034;-74
2022/12/24 09:36:26;;;;;;;37.17;9.13;;;10.80;91.30;;;;;;5000357;28;20545;-73
2022/12/24 09:38:51;;;;;;;35.20;7.57;;;10.80;91.10;;;;;;4998365;28;20075;-74
2022/12/24 09:41:34;;;;;;;34.65;7.68;;;10.70;91.20;;;;;;4994837;28;20118;-74
2022/12/24 09:44:10;;;;;;;33.13;8.52;;;10.80;91.20;;;;;;5003656;28;20398;-75
2022/12/24 09:46:42;;;;;;;35.85;9.57;;;10.80;91.00;;;;;;4996868;28;20038;-76
2022/12/24 09:49:14;;;;;;;39.22;9.70;;;10.80;91.00;;;;;;4999459;28;20139;-77
2022/12/24 09:51:42;;;;;;;40.72;11.13;;;10.90;91.00;;;;;;5003970;28;20037;-75
2022/12/24 09:54:29;;;;;;;35.53;10.45;;;11.00;90.90;;;;;;4997953;28;20401;-75
2022/12/24 09:57:00;;;;;;;46.00;10.90;;;10.90;90.70;;;;;;4998179;28;20608;-75
2022/12/24 09:59:38;;;;;;;40.25;9.10;;;10.90;90.80;;;;;;5001015;28;20034;-76
2022/12/24 10:02:10;;;;;;;35.75;9.50;;;10.90;90.70;;;;;;4987474;28;20479;-76
2022/12/24 10:04:36;;;;;;;37.75;9.30;;;11.00;90.70;;;;;;4996333;28;20044;-75
2022/12/24 10:07:32;;;;;;;29.17;7.85;;;11.10;90.70;;;;;;4997891;28;20042;-75
2022/12/24 10:10:21;;;;;;;36.63;8.23;;;11.10;90.40;;;;;;4997537;28;20320;-76
2022/12/24 10:12:55;;;;;;;39.30;7.53;;;11.10;90.30;;;;;;4999781;28;20076;-76
2022/12/24 10:15:28;;;;;;;43.47;7.80;;;11.20;90.20;;;;;;4998200;28;20056;-75
2022/12/24 10:18:12;;;;;;;33.38;8.65;;;11.20;89.90;;;;;;4978841;28;20069;-75
2022/12/24 10:20:43;;;;;;;36.13;7.80;;;11.20;89.80;;;;;;4988540;28;20049;-76
2022/12/24 10:23:08;;;;;;;27.90;6.65;;;11.30;89.70;;;;;;4995781;28;20034;-76
2022/12/24 10:26:15;;;;;;;29.23;7.50;;;11.30;89.80;;;;;;4994708;28;20038;-76
2022/12/24 10:29:22;;;;;;;31.20;7.45;;;11.30;89.60;;;;;;4991644;28;20276;-76
2022/12/24 10:32:08;;;;;;;30.27;7.30;;;11.30;89.50;;;;;;4987838;28;20383;-76
2022/12/24 10:35:13;;;;;;;34.17;7.10;;;11.30;89.50;;;;;;4987273;28;20026;-77
2022/12/24 10:37:40;;;;;;;31.48;7.55;;;11.20;89.70;;;;;;4978315;28;20105;-77
2022/12/24 10:40:11;;;;;;;32.35;8.18;;;11.20;89.70;;;;;;4989333;28;20745;-77
2022/12/24 10:42:41;;;;;;;42.28;9.52;;;11.30;89.80;;;;;;4997691;28;20705;-77
2022/12/24 10:45:14;;;;;;;33.50;8.73;;;11.30;89.90;;;;;;4993628;28;20049;-77
2022/12/24 10:47:43;;;;;;;40.47;10.05;;;11.50;89.90;;;;;;4989378;28;20030;-76
2022/12/24 10:50:32;;;;;;;36.92;9.65;;;11.50;89.60;;;;;;4991607;28;20061;-76
2022/12/24 10:53:32;;;;;;;29.23;8.63;;;11.60;89.40;;;;;;4989501;28;20049;-76
2022/12/24 10:56:08;;;;;;;32.08;9.43;;;11.60;89.30;;;;;;4996765;28;20034;-76
2022/12/24 10:58:34;;;;;;;41.78;10.35;;;11.50;89.30;;;;;;4990112;28;20034;-77
2022/12/24 11:01:00;;;;;;;34.00;10.02;;;11.50;89.10;;;;;;4992227;28;20042;-77
2022/12/24 11:03:30;;;;;;;33.55;9.73;;;11.50;89.40;;;;;;4994770;28;20048;-77
2022/12/24 11:06:06;;;;;;;33.92;10.45;;;11.50;89.30;;;;;;4993503;28;20079;-77
2022/12/24 11:08:33;;;;;;;33.78;13.15;;;11.60;89.40;;;;;;4994117;28;20089;-77
2022/12/24 11:11:05;;;;;;;35.75;10.52;;;11.50;89.40;;;;;;4993698;28;20042;-77
2022/12/24 11:13:45;;;;;;;39.10;14.30;;;11.50;89.50;;;;;;4993414;28;20045;-77
2022/12/24 11:16:23;;;;;;;36.08;11.95;;;11.50;89.50;;;;;;4994561;28;20038;-77
2022/12/24 11:18:54;;;;;;;41.30;14.18;;;11.50;89.70;;;;;;4989659;28;20775;-77
2022/12/24 11:21:23;;;;;;;35.75;12.02;;;11.50;89.80;;;;;;4990447;28;20046;-77
2022/12/24 11:23:58;;;;;;;35.92;10.82;;;11.50;89.90;;;;;;4994711;28;20073;-77
2022/12/24 11:26:28;;;;;;;38.10;11.18;;;11.50;89.70;;;;;;4996873;28;20033;-78
2022/12/24 11:29:14;;;;;;;35.15;11.45;;;11.50;89.80;;;;;;4995309;28;20025;-78
2022/12/24 11:31:42;;;;;;;37.70;11.63;;;11.60;90.00;;;;;;4997745;28;20049;-77
2022/12/24 11:34:21;;;;;;;35.15;11.40;;;11.60;89.90;;;;;;4990451;28;20092;-78
2022/12/24 11:36:47;;;;;;;36.80;11.00;;;11.80;89.90;;;;;;4997984;28;20042;-77
2022/12/24 11:39:21;;;;;;;43.85;11.48;;;12.00;89.60;;;;;;4991126;28;20323;-77
2022/12/24 11:41:51;;;;;;;34.10;11.13;;;12.10;89.20;;;;;;4992495;28;20789;-77
2022/12/24 11:44:27;;;;;;;33.08;10.45;;;12.10;89.00;;;;;;4996988;28;20037;-77
2022/12/24 11:46:57;;;;;;;36.92;11.48;;;12.30;88.80;;;;;;4996841;28;20034;-77
2022/12/24 11:49:27;;;;;;;34.58;10.80;;;12.40;88.20;;;;;;4990965;28;20109;-78
2022/12/24 11:52:16;;;;;;;36.63;10.05;;;12.40;88.20;;;;;;4997639;28;20233;-76
2022/12/24 11:54:50;;;;;;;29.98;9.23;;;12.40;88.00;;;;;;4992789;28;20077;-77
2022/12/24 11:57:19;;;;;;;31.48;9.55;;;12.40;87.80;;;;;;4997837;28;20061;-77
2022/12/24 11:59:49;;;;;;;31.20;9.02;;;12.50;87.90;;;;;;4998387;28;20542;-77
2022/12/24 12:02:35;;;;;;;35.88;9.88;;;12.60;87.90;;;;;;4997437;28;20041;-77
2022/12/24 12:05:10;;;;;;;32.28;9.27;;;12.60;87.70;;;;;;4996246;28;20049;-76
2022/12/24 12:07:37;;;;;;;37.78;10.75;;;12.60;87.70;;;;;;4998941;28;20522;-77
2022/12/24 12:10:10;;;;;;;41.15;11.38;;;12.50;87.60;;;;;;5001123;28;20038;-77
2022/12/24 12:12:41;;;;;;;30.83;10.73;;;12.50;87.60;;;;;;4990929;28;20058;-76
2022/12/24 12:15:10;;;;;;;31.38;10.43;;;12.50;87.90;;;;;;4993486;28;20096;-76
2022/12/24 12:17:39;;;;;;;32.95;8.93;;;12.40;88.00;;;;;;4992628;28;20621;-77
2022/12/24 12:20:23;;;;;;;33.38;9.90;;;12.40;88.00;;;;;;4992400;28;20057;-76
2022/12/24 12:23:01;;;;;;;28.85;9.57;;;12.40;88.00;;;;;;4998073;28;20053;-76
2022/12/24 12:25:43;;;;;;;37.22;9.02;;;12.50;88.00;;;;;;4998735;28;20034;-76
2022/12/24 12:28:31;;;;;;;35.25;9.32;;;12.50;88.10;;;;;;5000342;28;20030;-76
2022/12/24 12:31:35;;;;;;;34.45;10.98;;;12.50;88.30;;;;;;4998816;28;20038;-76
2022/12/24 12:34:30;;;;;;;41.50;10.52;;;12.60;88.10;;;;;;4997256;28;20054;-75
2022/12/24 12:37:11;;;;;;;35.22;8.63;;;12.50;87.90;;;;;;4995654;28;20066;-76
2022/12/24 12:39:37;;;;;;;32.80;10.40;;;12.50;87.60;;;;;;5003609;28;20042;-76
2022/12/24 12:42:31;;;;;;;39.55;12.18;;;12.50;87.80;;;;;;5006524;28;20037;-75
2022/12/24 12:45:23;;;;;;;34.85;11.35;;;12.60;87.90;;;;;;4999242;28;20065;-76
2022/12/24 12:48:07;;;;;;;34.05;10.15;;;12.50;87.90;;;;;;4981018;28;20034;-76
2022/12/24 12:50:38;;;;;;;32.60;9.50;;;12.60;87.60;;;;;;4980101;28;20093;-76
2022/12/24 12:53:39;;;;;;;36.97;10.55;;;12.60;87.80;;;;;;4979431;28;20518;-76
2022/12/24 12:56:30;;;;;;;31.83;12.02;;;12.60;87.70;;;;;;4977453;28;20050;-76
2022/12/24 12:59:07;;;;;;;36.88;13.65;;;12.70;87.70;;;;;;4979519;28;20566;-76
2022/12/24 13:01:44;;;;;;;38.70;10.13;;;12.70;87.70;;;;;;4984296;28;20038;-76